sensor_id;sensor_type;location;lat;lon;timestamp;P1;durP1;ratioP1;P2;durP2;ratioP2
69542;SDS011;56762;49.494;11.768;2022-09-09T00:00:11;2.08;;;0.60;;
69542;SDS011;56762;49.494;11.768;2022-09-09T00:02:42;2.45;;;0.60;;
69542;SDS011;56762;49.494;11.768;2022-09-09T00:05:17;2.27;;;0.77;;
69542;SDS011;56762;49.494;11.768;2022-09-09T00:07:54;2.78;;;0.80;;
69542;SDS011;56762;49.494;11.768;2022-09-09T00:10:28;3.25;;;0.60;;
69542;SDS011;56762;49.494;11.768;2022-09-09T00:12:59;1.65;;;0.68;;
69542;SDS011;56762;49.494;11.768;2022-09-09T00:15:34;1.67;;;0.50;;
69542;SDS011;56762;49.494;11.768;2022-09-09T00:18:11;2.03;;;0.70;;
69542;SDS011;56762;49.494;11.768;2022-09-09T00:20:47;2.13;;;0.50;;
69542;SDS011;56762;49.494;11.768;2022-09-09T00:23:23;2.95;;;0.80;;
69542;SDS011;56762;49.494;11.768;2022-09-09T00:25:54;2.63;;;1.00;;
69542;SDS011;56762;49.494;11.768;2022-09-09T00:28:30;1.20;;;0.50;;
69542;SDS011;56762;49.494;11.768;2022-09-09T00:31:01;1.10;;;0.47;;
69542;SDS011;56762;49.494;11.768;2022-09-09T00:33:39;2.10;;;0.40;;
69542;SDS011;56762;49.494;11.768;2022-09-09T00:36:09;1.60;;;0.65;;
69542;SDS011;56762;49.494;11.768;2022-09-09T00:38:44;1.60;;;0.60;;
69542;SDS011;56762;49.494;11.768;2022-09-09T00:41:17;2.42;;;0.70;;
69542;SDS011;56762;49.494;11.768;2022-09-09T00:43:52;2.33;;;0.90;;
69542;SDS011;56762;49.494;11.768;2022-09-09T00:46:27;2.65;;;0.77;;
69542;SDS011;56762;49.494;11.768;2022-09-09T00:49:13;1.75;;;0.75;;
69542;SDS011;56762;49.494;11.768;2022-09-09T00:51:52;2.05;;;0.50;;
69542;SDS011;56762;49.494;11.768;2022-09-09T00:57:21;2.67;;;0.90;;
69542;SDS011;56762;49.494;11.768;2022-09-09T00:59:56;3.25;;;0.57;;
69542;SDS011;56762;49.494;11.768;2022-09-09T01:02:44;2.88;;;0.60;;
69542;SDS011;56762;49.494;11.768;2022-09-09T01:05:23;3.33;;;0.68;;
69542;SDS011;56762;49.494;11.768;2022-09-09T01:07:58;1.70;;;0.60;;
69542;SDS011;56762;49.494;11.768;2022-09-09T01:10:34;3.47;;;0.63;;
69542;SDS011;56762;49.494;11.768;2022-09-09T01:13:11;2.95;;;0.57;;
69542;SDS011;56762;49.494;11.768;2022-09-09T01:15:45;2.17;;;0.57;;
69542;SDS011;56762;49.494;11.768;2022-09-09T01:18:15;2.13;;;0.50;;
69542;SDS011;56762;49.494;11.768;2022-09-09T01:20:47;1.90;;;0.55;;
69542;SDS011;56762;49.494;11.768;2022-09-09T01:26:33;2.00;;;0.45;;
69542;SDS011;56762;49.494;11.768;2022-09-09T01:29:04;3.63;;;0.82;;
69542;SDS011;56762;49.494;11.768;2022-09-09T01:31:36;1.92;;;0.52;;
69542;SDS011;56762;49.494;11.768;2022-09-09T01:34:10;2.30;;;0.50;;
69542;SDS011;56762;49.494;11.768;2022-09-09T01:36:40;2.70;;;0.60;;
69542;SDS011;56762;49.494;11.768;2022-09-09T01:39:11;1.08;;;0.40;;
69542;SDS011;56762;49.494;11.768;2022-09-09T01:41:41;2.33;;;0.70;;
69542;SDS011;56762;49.494;11.768;2022-09-09T01:44:09;1.65;;;0.60;;
69542;SDS011;56762;49.494;11.768;2022-09-09T01:46:37;4.22;;;0.98;;
69542;SDS011;56762;49.494;11.768;2022-09-09T01:49:06;1.77;;;0.70;;
69542;SDS011;56762;49.494;11.768;2022-09-09T01:51:35;1.75;;;0.60;;
69542;SDS011;56762;49.494;11.768;2022-09-09T01:54:05;3.58;;;0.63;;
69542;SDS011;56762;49.494;11.768;2022-09-09T01:56:35;1.52;;;0.68;;
69542;SDS011;56762;49.494;11.768;2022-09-09T01:59:24;1.83;;;0.70;;
69542;SDS011;56762;49.494;11.768;2022-09-09T02:02:16;1.77;;;0.60;;
69542;SDS011;56762;49.494;11.768;2022-09-09T02:04:47;2.28;;;0.60;;
69542;SDS011;56762;49.494;11.768;2022-09-09T02:07:21;1.73;;;0.65;;
69542;SDS011;56762;49.494;11.768;2022-09-09T02:09:59;3.30;;;1.13;;
69542;SDS011;56762;49.494;11.768;2022-09-09T02:12:34;2.85;;;0.80;;
69542;SDS011;56762;49.494;11.768;2022-09-09T02:15:06;2.97;;;0.90;;
69542;SDS011;56762;49.494;11.768;2022-09-09T02:17:41;4.47;;;0.90;;
69542;SDS011;56762;49.494;11.768;2022-09-09T02:20:10;2.45;;;1.20;;
69542;SDS011;56762;49.494;11.768;2022-09-09T02:22:41;2.17;;;0.98;;
69542;SDS011;56762;49.494;11.768;2022-09-09T02:25:12;2.63;;;0.90;;
69542;SDS011;56762;49.494;11.768;2022-09-09T02:27:44;3.60;;;0.87;;
69542;SDS011;56762;49.494;11.768;2022-09-09T02:30:14;5.00;;;1.10;;
69542;SDS011;56762;49.494;11.768;2022-09-09T02:32:43;1.80;;;0.60;;
69542;SDS011;56762;49.494;11.768;2022-09-09T02:35:13;4.45;;;0.95;;
69542;SDS011;56762;49.494;11.768;2022-09-09T02:37:44;2.35;;;0.80;;
69542;SDS011;56762;49.494;11.768;2022-09-09T02:40:14;2.20;;;0.77;;
69542;SDS011;56762;49.494;11.768;2022-09-09T02:42:46;1.90;;;0.70;;
69542;SDS011;56762;49.494;11.768;2022-09-09T02:45:17;4.40;;;0.90;;
69542;SDS011;56762;49.494;11.768;2022-09-09T02:47:49;3.95;;;0.90;;
69542;SDS011;56762;49.494;11.768;2022-09-09T02:50:23;2.10;;;0.77;;
69542;SDS011;56762;49.494;11.768;2022-09-09T02:53:06;2.00;;;0.60;;
69542;SDS011;56762;49.494;11.768;2022-09-09T02:55:38;2.20;;;0.70;;
69542;SDS011;56762;49.494;11.768;2022-09-09T02:58:10;3.05;;;0.75;;
69542;SDS011;56762;49.494;11.768;2022-09-09T03:00:43;1.77;;;0.80;;
69542;SDS011;56762;49.494;11.768;2022-09-09T03:03:12;2.08;;;0.70;;
69542;SDS011;56762;49.494;11.768;2022-09-09T03:05:42;2.43;;;0.60;;
69542;SDS011;56762;49.494;11.768;2022-09-09T03:08:10;3.63;;;1.08;;
69542;SDS011;56762;49.494;11.768;2022-09-09T03:10:39;2.08;;;0.85;;
69542;SDS011;56762;49.494;11.768;2022-09-09T03:13:07;1.80;;;0.80;;
69542;SDS011;56762;49.494;11.768;2022-09-09T03:15:36;2.40;;;0.80;;
69542;SDS011;56762;49.494;11.768;2022-09-09T03:18:04;2.23;;;0.90;;
69542;SDS011;56762;49.494;11.768;2022-09-09T03:20:32;4.63;;;1.02;;
69542;SDS011;56762;49.494;11.768;2022-09-09T03:23:00;2.50;;;0.93;;
69542;SDS011;56762;49.494;11.768;2022-09-09T03:25:28;2.47;;;1.05;;
69542;SDS011;56762;49.494;11.768;2022-09-09T03:27:56;2.65;;;1.30;;
69542;SDS011;56762;49.494;11.768;2022-09-09T03:30:25;2.70;;;1.30;;
69542;SDS011;56762;49.494;11.768;2022-09-09T03:32:56;6.03;;;1.70;;
69542;SDS011;56762;49.494;11.768;2022-09-09T03:35:24;4.00;;;1.80;;
69542;SDS011;56762;49.494;11.768;2022-09-09T03:37:52;5.57;;;2.30;;
69542;SDS011;56762;49.494;11.768;2022-09-09T03:40:21;8.68;;;3.00;;
69542;SDS011;56762;49.494;11.768;2022-09-09T03:42:49;6.30;;;3.30;;
69542;SDS011;56762;49.494;11.768;2022-09-09T03:45:17;5.75;;;2.97;;
69542;SDS011;56762;49.494;11.768;2022-09-09T03:47:44;7.50;;;3.00;;
69542;SDS011;56762;49.494;11.768;2022-09-09T03:50:15;6.03;;;3.35;;
69542;SDS011;56762;49.494;11.768;2022-09-09T03:52:44;5.55;;;2.97;;
69542;SDS011;56762;49.494;11.768;2022-09-09T03:55:13;5.63;;;3.50;;
69542;SDS011;56762;49.494;11.768;2022-09-09T03:57:40;5.90;;;3.15;;
69542;SDS011;56762;49.494;11.768;2022-09-09T04:00:08;6.10;;;3.05;;
69542;SDS011;56762;49.494;11.768;2022-09-09T04:02:37;6.10;;;4.07;;
69542;SDS011;56762;49.494;11.768;2022-09-09T04:05:05;6.75;;;3.95;;
69542;SDS011;56762;49.494;11.768;2022-09-09T04:07:35;7.30;;;3.63;;
69542;SDS011;56762;49.494;11.768;2022-09-09T04:10:03;8.05;;;4.07;;
69542;SDS011;56762;49.494;11.768;2022-09-09T04:12:32;8.07;;;4.15;;
69542;SDS011;56762;49.494;11.768;2022-09-09T04:15:01;7.18;;;4.60;;
69542;SDS011;56762;49.494;11.768;2022-09-09T04:17:29;9.05;;;4.57;;
69542;SDS011;56762;49.494;11.768;2022-09-09T04:19:57;6.77;;;4.20;;
69542;SDS011;56762;49.494;11.768;2022-09-09T04:22:25;10.48;;;5.57;;
69542;SDS011;56762;49.494;11.768;2022-09-09T04:24:54;10.35;;;5.18;;
69542;SDS011;56762;49.494;11.768;2022-09-09T04:27:21;10.05;;;4.82;;
69542;SDS011;56762;49.494;11.768;2022-09-09T04:29:49;10.50;;;5.35;;
69542;SDS011;56762;49.494;11.768;2022-09-09T04:32:17;7.20;;;4.77;;
69542;SDS011;56762;49.494;11.768;2022-09-09T04:34:45;8.50;;;4.97;;
69542;SDS011;56762;49.494;11.768;2022-09-09T04:37:14;9.18;;;5.05;;
69542;SDS011;56762;49.494;11.768;2022-09-09T04:39:41;8.60;;;5.15;;
69542;SDS011;56762;49.494;11.768;2022-09-09T04:42:10;10.15;;;5.10;;
69542;SDS011;56762;49.494;11.768;2022-09-09T04:44:40;8.27;;;4.60;;
69542;SDS011;56762;49.494;11.768;2022-09-09T04:47:08;8.57;;;4.93;;
69542;SDS011;56762;49.494;11.768;2022-09-09T04:49:37;9.57;;;5.35;;
69542;SDS011;56762;49.494;11.768;2022-09-09T04:52:05;8.23;;;4.82;;
69542;SDS011;56762;49.494;11.768;2022-09-09T04:54:33;9.15;;;5.70;;
69542;SDS011;56762;49.494;11.768;2022-09-09T04:57:01;7.77;;;5.20;;
69542;SDS011;56762;49.494;11.768;2022-09-09T04:59:30;7.65;;;4.68;;
69542;SDS011;56762;49.494;11.768;2022-09-09T05:01:58;8.82;;;5.18;;
69542;SDS011;56762;49.494;11.768;2022-09-09T05:04:27;7.93;;;4.40;;
69542;SDS011;56762;49.494;11.768;2022-09-09T05:06:55;6.93;;;4.45;;
69542;SDS011;56762;49.494;11.768;2022-09-09T05:09:24;9.17;;;5.10;;
69542;SDS011;56762;49.494;11.768;2022-09-09T05:11:52;7.72;;;4.57;;
69542;SDS011;56762;49.494;11.768;2022-09-09T05:14:19;9.07;;;4.88;;
69542;SDS011;56762;49.494;11.768;2022-09-09T05:16:48;9.35;;;5.13;;
69542;SDS011;56762;49.494;11.768;2022-09-09T05:19:16;7.90;;;4.85;;
69542;SDS011;56762;49.494;11.768;2022-09-09T05:21:46;8.03;;;4.70;;
69542;SDS011;56762;49.494;11.768;2022-09-09T05:24:13;8.82;;;4.85;;
69542;SDS011;56762;49.494;11.768;2022-09-09T05:26:41;8.63;;;5.30;;
69542;SDS011;56762;49.494;11.768;2022-09-09T05:29:09;9.13;;;5.53;;
69542;SDS011;56762;49.494;11.768;2022-09-09T05:31:37;9.57;;;4.90;;
69542;SDS011;56762;49.494;11.768;2022-09-09T05:34:06;10.33;;;5.73;;
69542;SDS011;56762;49.494;11.768;2022-09-09T05:36:35;10.32;;;5.38;;
69542;SDS011;56762;49.494;11.768;2022-09-09T05:39:02;9.57;;;5.72;;
69542;SDS011;56762;49.494;11.768;2022-09-09T05:41:30;10.80;;;6.20;;
69542;SDS011;56762;49.494;11.768;2022-09-09T05:43:59;10.85;;;6.50;;
69542;SDS011;56762;49.494;11.768;2022-09-09T05:46:27;12.63;;;6.37;;
69542;SDS011;56762;49.494;11.768;2022-09-09T05:48:55;12.77;;;7.10;;
69542;SDS011;56762;49.494;11.768;2022-09-09T05:51:24;11.25;;;7.10;;
69542;SDS011;56762;49.494;11.768;2022-09-09T05:53:54;12.07;;;7.20;;
69542;SDS011;56762;49.494;11.768;2022-09-09T05:56:25;13.32;;;7.30;;
69542;SDS011;56762;49.494;11.768;2022-09-09T05:58:54;12.87;;;6.80;;
69542;SDS011;56762;49.494;11.768;2022-09-09T06:01:23;11.85;;;6.65;;
69542;SDS011;56762;49.494;11.768;2022-09-09T06:03:53;12.75;;;7.32;;
69542;SDS011;56762;49.494;11.768;2022-09-09T06:06:21;14.60;;;7.00;;
69542;SDS011;56762;49.494;11.768;2022-09-09T06:08:53;11.60;;;7.15;;
69542;SDS011;56762;49.494;11.768;2022-09-09T06:11:22;11.50;;;7.23;;
69542;SDS011;56762;49.494;11.768;2022-09-09T06:13:52;12.73;;;6.80;;
69542;SDS011;56762;49.494;11.768;2022-09-09T06:16:21;13.80;;;7.28;;
69542;SDS011;56762;49.494;11.768;2022-09-09T06:18:50;12.73;;;7.22;;
69542;SDS011;56762;49.494;11.768;2022-09-09T06:21:20;11.10;;;6.25;;
69542;SDS011;56762;49.494;11.768;2022-09-09T06:23:50;11.60;;;6.37;;
69542;SDS011;56762;49.494;11.768;2022-09-09T06:26:26;10.95;;;6.28;;
69542;SDS011;56762;49.494;11.768;2022-09-09T06:28:54;14.43;;;8.18;;
69542;SDS011;56762;49.494;11.768;2022-09-09T06:31:24;10.10;;;5.75;;
69542;SDS011;56762;49.494;11.768;2022-09-09T06:33:55;12.25;;;6.40;;
69542;SDS011;56762;49.494;11.768;2022-09-09T06:36:25;12.00;;;6.70;;
69542;SDS011;56762;49.494;11.768;2022-09-09T06:38:55;10.75;;;6.38;;
69542;SDS011;56762;49.494;11.768;2022-09-09T06:41:24;12.45;;;7.95;;
69542;SDS011;56762;49.494;11.768;2022-09-09T06:43:53;11.90;;;7.28;;
69542;SDS011;56762;49.494;11.768;2022-09-09T06:46:22;12.50;;;7.18;;
69542;SDS011;56762;49.494;11.768;2022-09-09T06:48:53;9.90;;;6.23;;
69542;SDS011;56762;49.494;11.768;2022-09-09T06:51:24;11.27;;;6.90;;
69542;SDS011;56762;49.494;11.768;2022-09-09T06:53:53;10.70;;;6.55;;
69542;SDS011;56762;49.494;11.768;2022-09-09T06:56:24;11.07;;;6.30;;
69542;SDS011;56762;49.494;11.768;2022-09-09T06:58:55;11.20;;;6.50;;
69542;SDS011;56762;49.494;11.768;2022-09-09T07:01:25;10.83;;;6.23;;
69542;SDS011;56762;49.494;11.768;2022-09-09T07:03:55;12.43;;;7.07;;
69542;SDS011;56762;49.494;11.768;2022-09-09T07:06:25;10.60;;;6.57;;
69542;SDS011;56762;49.494;11.768;2022-09-09T07:08:56;10.98;;;6.60;;
69542;SDS011;56762;49.494;11.768;2022-09-09T07:11:25;11.13;;;6.43;;
69542;SDS011;56762;49.494;11.768;2022-09-09T07:13:55;10.80;;;6.10;;
69542;SDS011;56762;49.494;11.768;2022-09-09T07:16:25;11.02;;;6.20;;
69542;SDS011;56762;49.494;11.768;2022-09-09T07:18:54;9.88;;;6.03;;
69542;SDS011;56762;49.494;11.768;2022-09-09T07:21:24;11.50;;;6.60;;
69542;SDS011;56762;49.494;11.768;2022-09-09T07:23:53;11.05;;;6.68;;
69542;SDS011;56762;49.494;11.768;2022-09-09T07:26:24;12.27;;;6.40;;
69542;SDS011;56762;49.494;11.768;2022-09-09T07:28:53;10.57;;;6.03;;
69542;SDS011;56762;49.494;11.768;2022-09-09T07:31:22;11.90;;;6.38;;
69542;SDS011;56762;49.494;11.768;2022-09-09T07:33:51;11.70;;;6.50;;
69542;SDS011;56762;49.494;11.768;2022-09-09T07:36:20;13.35;;;6.97;;
69542;SDS011;56762;49.494;11.768;2022-09-09T07:38:50;10.20;;;6.00;;
69542;SDS011;56762;49.494;11.768;2022-09-09T07:41:21;11.38;;;6.38;;
69542;SDS011;56762;49.494;11.768;2022-09-09T07:43:52;10.43;;;5.45;;
69542;SDS011;56762;49.494;11.768;2022-09-09T07:46:21;10.63;;;5.40;;
69542;SDS011;56762;49.494;11.768;2022-09-09T07:48:52;9.90;;;5.82;;
69542;SDS011;56762;49.494;11.768;2022-09-09T07:51:21;11.33;;;5.80;;
69542;SDS011;56762;49.494;11.768;2022-09-09T07:53:52;9.40;;;5.70;;
69542;SDS011;56762;49.494;11.768;2022-09-09T07:56:22;10.88;;;6.03;;
69542;SDS011;56762;49.494;11.768;2022-09-09T07:58:50;10.18;;;5.65;;
69542;SDS011;56762;49.494;11.768;2022-09-09T08:01:20;9.35;;;5.70;;
69542;SDS011;56762;49.494;11.768;2022-09-09T08:03:52;9.23;;;5.20;;
69542;SDS011;56762;49.494;11.768;2022-09-09T08:06:22;9.70;;;5.32;;
69542;SDS011;56762;49.494;11.768;2022-09-09T08:08:51;11.85;;;6.25;;
69542;SDS011;56762;49.494;11.768;2022-09-09T08:11:19;12.40;;;5.90;;
69542;SDS011;56762;49.494;11.768;2022-09-09T08:13:48;10.85;;;5.40;;
69542;SDS011;56762;49.494;11.768;2022-09-09T08:16:21;9.20;;;5.47;;
69542;SDS011;56762;49.494;11.768;2022-09-09T08:18:51;12.00;;;6.10;;
69542;SDS011;56762;49.494;11.768;2022-09-09T08:21:21;9.10;;;5.47;;
69542;SDS011;56762;49.494;11.768;2022-09-09T08:23:50;11.25;;;6.25;;
69542;SDS011;56762;49.494;11.768;2022-09-09T08:26:25;10.38;;;6.20;;
69542;SDS011;56762;49.494;11.768;2022-09-09T08:28:56;9.37;;;5.67;;
69542;SDS011;56762;49.494;11.768;2022-09-09T08:31:26;10.98;;;5.93;;
69542;SDS011;56762;49.494;11.768;2022-09-09T08:33:55;11.07;;;5.50;;
69542;SDS011;56762;49.494;11.768;2022-09-09T08:36:26;10.00;;;5.00;;
69542;SDS011;56762;49.494;11.768;2022-09-09T08:38:56;8.77;;;5.82;;
69542;SDS011;56762;49.494;11.768;2022-09-09T08:41:30;8.53;;;5.50;;
69542;SDS011;56762;49.494;11.768;2022-09-09T08:44:09;9.35;;;5.05;;
69542;SDS011;56762;49.494;11.768;2022-09-09T08:46:44;7.28;;;4.65;;
69542;SDS011;56762;49.494;11.768;2022-09-09T08:49:24;7.80;;;4.75;;
69542;SDS011;56762;49.494;11.768;2022-09-09T08:52:07;7.22;;;4.30;;
69542;SDS011;56762;49.494;11.768;2022-09-09T08:54:42;6.17;;;3.80;;
69542;SDS011;56762;49.494;11.768;2022-09-09T08:57:19;6.88;;;3.65;;
69542;SDS011;56762;49.494;11.768;2022-09-09T08:59:54;7.70;;;3.80;;
69542;SDS011;56762;49.494;11.768;2022-09-09T09:02:25;5.63;;;3.40;;
69542;SDS011;56762;49.494;11.768;2022-09-09T09:05:00;5.57;;;3.30;;
69542;SDS011;56762;49.494;11.768;2022-09-09T09:07:41;5.63;;;3.57;;
69542;SDS011;56762;49.494;11.768;2022-09-09T09:10:19;6.22;;;3.40;;
69542;SDS011;56762;49.494;11.768;2022-09-09T09:13:11;5.45;;;3.22;;
69542;SDS011;56762;49.494;11.768;2022-09-09T09:15:46;5.80;;;3.20;;
69542;SDS011;56762;49.494;11.768;2022-09-09T09:18:17;6.80;;;3.45;;
69542;SDS011;56762;49.494;11.768;2022-09-09T09:20:47;5.93;;;3.30;;
69542;SDS011;56762;49.494;11.768;2022-09-09T09:23:22;4.40;;;2.95;;
69542;SDS011;56762;49.494;11.768;2022-09-09T09:25:52;4.78;;;2.60;;
69542;SDS011;56762;49.494;11.768;2022-09-09T09:28:25;3.50;;;1.83;;
69542;SDS011;56762;49.494;11.768;2022-09-09T09:30:59;4.57;;;1.85;;
69542;SDS011;56762;49.494;11.768;2022-09-09T09:33:32;4.67;;;2.13;;
69542;SDS011;56762;49.494;11.768;2022-09-09T09:36:04;4.10;;;2.13;;
69542;SDS011;56762;49.494;11.768;2022-09-09T09:38:34;4.07;;;2.20;;
69542;SDS011;56762;49.494;11.768;2022-09-09T09:41:33;4.80;;;2.10;;
69542;SDS011;56762;49.494;11.768;2022-09-09T09:44:03;4.30;;;2.20;;
69542;SDS011;56762;49.494;11.768;2022-09-09T09:46:33;3.40;;;1.90;;
69542;SDS011;56762;49.494;11.768;2022-09-09T09:49:02;3.90;;;2.00;;
69542;SDS011;56762;49.494;11.768;2022-09-09T09:51:32;3.08;;;2.08;;
69542;SDS011;56762;49.494;11.768;2022-09-09T09:54:14;4.18;;;1.70;;
69542;SDS011;56762;49.494;11.768;2022-09-09T09:56:50;3.60;;;1.75;;
69542;SDS011;56762;49.494;11.768;2022-09-09T09:59:22;3.57;;;1.60;;
69542;SDS011;56762;49.494;11.768;2022-09-09T10:02:15;4.55;;;1.05;;
69542;SDS011;56762;49.494;11.768;2022-09-09T10:04:45;2.95;;;0.95;;
69542;SDS011;56762;49.494;11.768;2022-09-09T10:07:17;3.38;;;1.00;;
69542;SDS011;56762;49.494;11.768;2022-09-09T10:09:46;1.98;;;1.00;;
69542;SDS011;56762;49.494;11.768;2022-09-09T10:12:22;1.77;;;0.70;;
69542;SDS011;56762;49.494;11.768;2022-09-09T10:14:59;1.77;;;0.82;;
69542;SDS011;56762;49.494;11.768;2022-09-09T10:17:38;2.10;;;0.60;;
69542;SDS011;56762;49.494;11.768;2022-09-09T10:20:16;2.00;;;0.70;;
69542;SDS011;56762;49.494;11.768;2022-09-09T10:22:51;1.77;;;0.45;;
69542;SDS011;56762;49.494;11.768;2022-09-09T10:25:22;2.80;;;0.50;;
69542;SDS011;56762;49.494;11.768;2022-09-09T10:28:05;1.75;;;0.60;;
69542;SDS011;56762;49.494;11.768;2022-09-09T10:30:46;2.20;;;0.60;;
69542;SDS011;56762;49.494;11.768;2022-09-09T10:33:24;2.45;;;0.60;;
69542;SDS011;56762;49.494;11.768;2022-09-09T10:36:02;1.13;;;0.40;;
69542;SDS011;56762;49.494;11.768;2022-09-09T10:38:52;1.90;;;0.50;;
69542;SDS011;56762;49.494;11.768;2022-09-09T10:41:30;2.25;;;0.50;;
69542;SDS011;56762;49.494;11.768;2022-09-09T10:44:12;2.42;;;0.77;;
69542;SDS011;56762;49.494;11.768;2022-09-09T10:46:49;2.45;;;0.75;;
69542;SDS011;56762;49.494;11.768;2022-09-09T10:49:34;5.70;;;1.73;;
69542;SDS011;56762;49.494;11.768;2022-09-09T10:52:21;3.10;;;1.00;;
69542;SDS011;56762;49.494;11.768;2022-09-09T10:54:56;2.40;;;0.57;;
69542;SDS011;56762;49.494;11.768;2022-09-09T10:57:28;3.63;;;0.80;;
69542;SDS011;56762;49.494;11.768;2022-09-09T11:00:04;3.00;;;0.40;;
69542;SDS011;56762;49.494;11.768;2022-09-09T11:02:35;2.33;;;0.43;;
69542;SDS011;56762;49.494;11.768;2022-09-09T11:05:08;2.23;;;0.50;;
69542;SDS011;56762;49.494;11.768;2022-09-09T11:07:44;2.28;;;0.40;;
69542;SDS011;56762;49.494;11.768;2022-09-09T11:10:18;2.22;;;0.32;;
69542;SDS011;56762;49.494;11.768;2022-09-09T11:12:53;1.88;;;0.40;;
69542;SDS011;56762;49.494;11.768;2022-09-09T11:15:28;1.98;;;0.45;;
69542;SDS011;56762;49.494;11.768;2022-09-09T11:18:03;1.93;;;0.40;;
69542;SDS011;56762;49.494;11.768;2022-09-09T11:20:35;2.30;;;0.40;;
69542;SDS011;56762;49.494;11.768;2022-09-09T11:23:04;2.08;;;0.32;;
69542;SDS011;56762;49.494;11.768;2022-09-09T11:25:38;2.08;;;0.40;;
69542;SDS011;56762;49.494;11.768;2022-09-09T11:28:14;2.92;;;0.60;;
69542;SDS011;56762;49.494;11.768;2022-09-09T11:31:07;2.80;;;0.40;;
69542;SDS011;56762;49.494;11.768;2022-09-09T11:34:08;1.67;;;0.50;;
69542;SDS011;56762;49.494;11.768;2022-09-09T11:40:04;1.25;;;0.35;;
69542;SDS011;56762;49.494;11.768;2022-09-09T11:42:41;1.92;;;0.57;;
69542;SDS011;56762;49.494;11.768;2022-09-09T11:45:10;2.00;;;0.50;;
69542;SDS011;56762;49.494;11.768;2022-09-09T11:47:51;3.00;;;1.15;;
69542;SDS011;56762;49.494;11.768;2022-09-09T11:50:27;1.33;;;0.30;;
69542;SDS011;56762;49.494;11.768;2022-09-09T11:58:41;2.03;;;0.50;;
69542;SDS011;56762;49.494;11.768;2022-09-09T12:01:25;1.60;;;0.40;;
69542;SDS011;56762;49.494;11.768;2022-09-09T12:04:16;1.50;;;0.60;;
69542;SDS011;56762;49.494;11.768;2022-09-09T12:06:54;1.80;;;0.75;;
69542;SDS011;56762;49.494;11.768;2022-09-09T12:09:28;2.63;;;0.50;;
69542;SDS011;56762;49.494;11.768;2022-09-09T12:12:17;2.37;;;0.40;;
69542;SDS011;56762;49.494;11.768;2022-09-09T12:15:01;3.13;;;0.55;;
69542;SDS011;56762;49.494;11.768;2022-09-09T12:17:47;1.35;;;0.30;;
69542;SDS011;56762;49.494;11.768;2022-09-09T12:20:18;1.48;;;0.60;;
69542;SDS011;56762;49.494;11.768;2022-09-09T12:25:49;1.07;;;0.40;;
69542;SDS011;56762;49.494;11.768;2022-09-09T12:28:29;1.33;;;0.20;;
69542;SDS011;56762;49.494;11.768;2022-09-09T12:31:09;1.88;;;0.40;;
69542;SDS011;56762;49.494;11.768;2022-09-09T12:33:44;1.65;;;0.30;;
69542;SDS011;56762;49.494;11.768;2022-09-09T12:36:15;4.13;;;0.40;;
69542;SDS011;56762;49.494;11.768;2022-09-09T12:38:48;1.10;;;0.30;;
69542;SDS011;56762;49.494;11.768;2022-09-09T12:41:20;1.98;;;0.40;;
69542;SDS011;56762;49.494;11.768;2022-09-09T12:43:51;3.95;;;0.20;;
69542;SDS011;56762;49.494;11.768;2022-09-09T12:46:21;2.20;;;0.30;;
69542;SDS011;56762;49.494;11.768;2022-09-09T12:48:54;1.90;;;0.30;;
69542;SDS011;56762;49.494;11.768;2022-09-09T12:51:24;2.13;;;0.40;;
69542;SDS011;56762;49.494;11.768;2022-09-09T12:53:54;1.85;;;0.30;;
69542;SDS011;56762;49.494;11.768;2022-09-09T12:56:23;2.80;;;0.52;;
69542;SDS011;56762;49.494;11.768;2022-09-09T12:58:56;1.02;;;0.10;;
69542;SDS011;56762;49.494;11.768;2022-09-09T13:01:25;1.75;;;0.28;;
69542;SDS011;56762;49.494;11.768;2022-09-09T13:03:55;1.43;;;0.20;;
69542;SDS011;56762;49.494;11.768;2022-09-09T13:06:24;1.30;;;0.20;;
69542;SDS011;56762;49.494;11.768;2022-09-09T13:08:55;1.08;;;0.30;;
69542;SDS011;56762;49.494;11.768;2022-09-09T13:11:26;1.00;;;0.15;;
69542;SDS011;56762;49.494;11.768;2022-09-09T13:13:58;2.78;;;0.30;;
69542;SDS011;56762;49.494;11.768;2022-09-09T13:16:28;0.80;;;0.10;;
69542;SDS011;56762;49.494;11.768;2022-09-09T13:18:59;2.58;;;0.35;;
69542;SDS011;56762;49.494;11.768;2022-09-09T13:21:32;2.03;;;0.20;;
69542;SDS011;56762;49.494;11.768;2022-09-09T13:24:03;0.93;;;0.20;;
69542;SDS011;56762;49.494;11.768;2022-09-09T13:26:34;0.90;;;0.20;;
69542;SDS011;56762;49.494;11.768;2022-09-09T13:29:14;0.60;;;0.20;;
69542;SDS011;56762;49.494;11.768;2022-09-09T13:31:47;2.13;;;0.50;;
69542;SDS011;56762;49.494;11.768;2022-09-09T13:34:28;4.88;;;0.60;;
69542;SDS011;56762;49.494;11.768;2022-09-09T13:36:59;1.42;;;0.50;;
69542;SDS011;56762;49.494;11.768;2022-09-09T13:39:29;1.90;;;0.20;;
69542;SDS011;56762;49.494;11.768;2022-09-09T13:41:57;1.50;;;0.40;;
69542;SDS011;56762;49.494;11.768;2022-09-09T13:44:28;2.58;;;0.43;;
69542;SDS011;56762;49.494;11.768;2022-09-09T13:47:02;2.40;;;0.20;;
69542;SDS011;56762;49.494;11.768;2022-09-09T13:49:35;1.42;;;1.05;;
69542;SDS011;56762;49.494;11.768;2022-09-09T13:52:05;1.73;;;0.30;;
69542;SDS011;56762;49.494;11.768;2022-09-09T13:54:36;3.40;;;0.67;;
69542;SDS011;56762;49.494;11.768;2022-09-09T13:57:05;2.55;;;0.40;;
69542;SDS011;56762;49.494;11.768;2022-09-09T13:59:42;4.55;;;0.35;;
69542;SDS011;56762;49.494;11.768;2022-09-09T14:02:30;1.30;;;0.30;;
69542;SDS011;56762;49.494;11.768;2022-09-09T14:04:58;5.45;;;0.47;;
69542;SDS011;56762;49.494;11.768;2022-09-09T14:07:26;6.00;;;0.60;;
69542;SDS011;56762;49.494;11.768;2022-09-09T14:09:55;2.85;;;0.50;;
69542;SDS011;56762;49.494;11.768;2022-09-09T14:12:23;2.25;;;0.30;;
69542;SDS011;56762;49.494;11.768;2022-09-09T14:14:52;3.83;;;0.45;;
69542;SDS011;56762;49.494;11.768;2022-09-09T14:17:20;3.78;;;0.40;;
69542;SDS011;56762;49.494;11.768;2022-09-09T14:19:49;1.10;;;0.27;;
69542;SDS011;56762;49.494;11.768;2022-09-09T14:22:16;1.95;;;0.28;;
69542;SDS011;56762;49.494;11.768;2022-09-09T14:24:45;2.45;;;0.30;;
69542;SDS011;56762;49.494;11.768;2022-09-09T14:27:13;2.90;;;0.30;;
69542;SDS011;56762;49.494;11.768;2022-09-09T14:29:41;2.60;;;0.30;;
69542;SDS011;56762;49.494;11.768;2022-09-09T14:32:11;2.20;;;0.20;;
69542;SDS011;56762;49.494;11.768;2022-09-09T14:34:40;3.25;;;0.40;;
69542;SDS011;56762;49.494;11.768;2022-09-09T14:37:09;4.07;;;0.68;;
69542;SDS011;56762;49.494;11.768;2022-09-09T14:39:36;2.75;;;0.50;;
69542;SDS011;56762;49.494;11.768;2022-09-09T14:42:05;3.08;;;0.50;;
69542;SDS011;56762;49.494;11.768;2022-09-09T14:44:33;2.80;;;0.43;;
69542;SDS011;56762;49.494;11.768;2022-09-09T14:47:01;3.22;;;0.60;;
69542;SDS011;56762;49.494;11.768;2022-09-09T14:49:30;2.80;;;0.40;;
69542;SDS011;56762;49.494;11.768;2022-09-09T14:51:58;2.30;;;0.57;;
69542;SDS011;56762;49.494;11.768;2022-09-09T14:54:25;4.20;;;0.73;;
69542;SDS011;56762;49.494;11.768;2022-09-09T14:56:54;3.50;;;0.90;;
69542;SDS011;56762;49.494;11.768;2022-09-09T14:59:23;4.57;;;1.10;;
69542;SDS011;56762;49.494;11.768;2022-09-09T15:01:51;4.28;;;1.35;;
69542;SDS011;56762;49.494;11.768;2022-09-09T15:04:19;8.38;;;1.15;;
69542;SDS011;56762;49.494;11.768;2022-09-09T15:06:48;4.22;;;0.52;;
69542;SDS011;56762;49.494;11.768;2022-09-09T15:09:18;2.80;;;0.40;;
69542;SDS011;56762;49.494;11.768;2022-09-09T15:11:46;3.33;;;0.40;;
69542;SDS011;56762;49.494;11.768;2022-09-09T15:14:14;2.45;;;0.60;;
69542;SDS011;56762;49.494;11.768;2022-09-09T15:16:45;4.85;;;0.60;;